Marion, Connecticut
Current Conditions -  °F | °C
As of 6:53 AM on Thursday 23 Oct 2014 (Local Time) from KMMK Reporting Station
Overcast Overcast  
Wind Chill: 51°   Ceiling: 1700
Heat Index: 51°   Visibility: 10mi
Dew Point: 46°   Wind: 13mph
Humidity: 83%   Direction: 360°N
Pressure: 29.66"   Gusts: 30mph
Location:  41.56°N, 72.93°W
Report Text: KMMK 231053Z AUTO 36011G26KT 10SM OVC017 11/08 A2966 RMK AO2 PK WND 35028/1014 RAE18 SLP043 P0000 T01060078 TSNO
Loading
Personal Weather Stations






























Interactive Weather Map
Tropical Storm Tracking
New forecast layout! Learn more

10-Day Weather Forecast

Advertisements
Track Severe Weather on mobile